Time;durP1;ratioP1;P1;durP2;ratioP2;P2;SDS_P1;SDS_P2;PMS_P1;PMS_P2;Temp;Humidity;BMP_temperature;BMP_pressure;BME280_temperature;BME280_humidity;BME280_pressure;Samples;Min_cycle;Max_cycle;Signal;HPM_P1;HPM_P2
2022/07/28 00:01:14;;;;;;;7.40;3.50;;;;;;;16.69;67.42;98063.34;108281;1289;22355;-90
2022/07/28 00:03:45;;;;;;;8.10;3.10;;;;;;;16.49;67.97;98069.54;108315;1290;22447;-88
2022/07/28 00:06:21;;;;;;;6.90;3.70;;;;;;;16.28;68.59;98079.64;108708;1278;22491;31
2022/07/28 00:08:49;;;;;;;9.20;3.50;;;;;;;16.09;69.15;98080.72;108635;1278;22476;-93
2022/07/28 00:11:17;;;;;;;8.00;3.60;;;;;;;15.91;70.07;98083.52;108672;1288;22476;-91
2022/07/28 00:13:45;;;;;;;8.60;3.60;;;;;;;15.73;70.38;98082.97;108602;1288;22626;-90
2022/07/28 00:16:13;;;;;;;5.90;3.30;;;;;;;15.61;72.87;98084.65;108477;1288;22490;-90
2022/07/28 00:18:41;;;;;;;6.50;3.10;;;;;;;15.44;72.76;98081.20;108555;1288;22380;-90
2022/07/28 00:21:10;;;;;;;8.70;4.20;;;;;;;15.38;72.26;98084.27;108617;1288;22507;-91
2022/07/28 00:23:38;;;;;;;11.10;3.50;;;;;;;15.32;73.33;98085.16;108532;1288;23265;-88
2022/07/28 00:26:08;;;;;;;6.60;3.00;;;;;;;15.22;74.43;98088.83;108591;1288;22266;-91
2022/07/28 00:28:36;;;;;;;9.50;3.60;;;;;;;15.11;74.44;98091.82;108532;1288;22305;-89
2022/07/28 00:31:05;;;;;;;9.00;4.00;;;;;;;15.01;74.90;98094.52;108357;1287;22228;-90
2022/07/28 00:33:38;;;;;;;12.10;4.90;;;;;;;14.92;76.23;98096.87;108454;1287;22381;-92
2022/07/28 00:36:08;;;;;;;14.20;5.60;;;;;;;14.85;75.84;98095.23;108550;1287;22353;-93
2022/07/28 00:38:40;;;;;;;12.50;4.70;;;;;;;14.86;75.69;98095.31;108609;1288;22257;-92
2022/07/28 00:41:12;;;;;;;8.20;4.30;;;;;;;14.92;75.54;98090.58;108659;1288;22364;-90
2022/07/28 00:43:42;;;;;;;7.30;4.10;;;;;;;15.00;74.97;98087.41;108436;1288;22972;-91
2022/07/28 00:46:12;;;;;;;9.00;4.80;;;;;;;15.03;75.95;98079.87;108636;1288;22347;-88
2022/07/28 00:48:43;;;;;;;8.80;4.00;;;;;;;14.98;75.32;98080.08;108676;1288;22367;-94
2022/07/28 00:51:11;;;;;;;11.10;5.10;;;;;;;14.98;76.93;98079.27;108564;1288;23103;-90
2022/07/28 00:53:39;;;;;;;10.20;6.10;;;;;;;14.89;78.16;98081.59;108613;1288;22336;-93
2022/07/28 00:56:08;;;;;;;14.60;6.90;;;;;;;14.74;79.65;98081.90;108526;1290;22392;-93
2022/07/28 00:58:37;;;;;;;15.20;8.10;;;;;;;14.62;79.94;98083.00;108508;1289;22270;-93
2022/07/28 01:01:09;;;;;;;16.30;8.60;;;;;;;14.54;79.40;98080.08;108425;1288;22316;-93
2022/07/28 01:03:44;;;;;;;19.70;10.30;;;;;;;14.53;79.50;98076.45;108705;1275;22557;-89
2022/07/28 01:06:30;;;;;;;22.20;11.00;;;;;;;14.49;78.84;98075.89;108531;1287;22390;-92
2022/07/28 01:09:23;;;;;;;24.80;11.00;;;;;;;14.48;78.84;98072.58;108751;1287;22493;-91
2022/07/28 01:12:03;;;;;;;24.10;12.10;;;;;;;14.49;78.25;98068.85;108733;1287;22341;-93
2022/07/28 01:14:48;;;;;;;22.50;11.50;;;;;;;14.55;78.86;98064.71;108719;1287;22836;-92
2022/07/28 01:20:10;;;;;;;25.10;12.40;;;;;;;14.64;78.31;98059.96;108527;1287;22428;-94
2022/07/28 01:22:55;;;;;;;21.80;11.20;;;;;;;14.69;77.63;98058.35;108577;1288;22378;-89
2022/07/28 01:25:39;;;;;;;22.60;11.00;;;;;;;14.73;77.58;98060.23;108413;1287;23080;-91
2022/07/28 01:28:40;;;;;;;17.80;9.60;;;;;;;14.82;77.19;98053.07;108453;1287;22380;-93
2022/07/28 01:31:15;;;;;;;20.00;10.70;;;;;;;14.86;77.31;98047.33;108399;1288;23102;-93
2022/07/28 01:33:48;;;;;;;14.90;7.80;;;;;;;14.98;77.48;98053.23;108352;1288;22482;-94
2022/07/28 01:36:25;;;;;;;12.40;6.20;;;;;;;15.04;77.20;98056.02;108344;1288;22367;-92
2022/07/28 01:38:53;;;;;;;11.20;5.70;;;;;;;15.08;77.27;98059.20;108405;1287;22312;-89
2022/07/28 01:41:26;;;;;;;10.00;5.10;;;;;;;15.14;77.38;98059.08;108227;1288;22969;-91
2022/07/28 01:43:59;;;;;;;11.00;5.90;;;;;;;15.18;77.02;98061.27;108300;1288;22474;-93
2022/07/28 01:46:28;;;;;;;11.10;5.30;;;;;;;15.17;77.21;98064.25;108253;1290;22293;-92
2022/07/28 01:48:58;;;;;;;11.60;5.60;;;;;;;15.14;77.39;98064.38;108386;1287;22469;-93
2022/07/28 01:51:29;;;;;;;8.70;5.30;;;;;;;15.16;77.66;98064.52;108118;1288;22363;-92
2022/07/28 01:53:59;;;;;;;9.20;5.60;;;;;;;15.18;77.56;98058.46;108369;1288;23117;-92
2022/07/28 01:56:29;;;;;;;10.90;6.10;;;;;;;15.24;77.48;98061.45;108133;1287;287159;-92
2022/07/28 01:59:04;;;;;;;11.20;5.20;;;;;;;15.28;77.48;98060.05;108229;1288;23288;-93
2022/07/28 02:01:40;;;;;;;8.70;5.00;;;;;;;15.29;77.42;98056.45;108404;1287;22269;-91
2022/07/28 02:04:09;;;;;;;10.90;5.00;;;;;;;15.27;77.20;98059.86;108365;1287;22241;-93
2022/07/28 02:06:40;;;;;;;9.80;5.10;;;;;;;15.23;77.53;98061.94;108464;1287;22367;-93
2022/07/28 02:09:09;;;;;;;10.50;4.50;;;;;;;15.24;77.63;98064.02;108558;1285;22386;-94
2022/07/28 02:11:39;;;;;;;8.80;4.40;;;;;;;15.28;77.67;98068.73;108526;1288;22305;-93
2022/07/28 02:14:12;;;;;;;9.50;4.80;;;;;;;15.25;77.65;98068.79;108481;1288;22483;-94
2022/07/28 02:16:45;;;;;;;12.50;5.80;;;;;;;15.22;77.62;98069.11;108448;1289;22356;-94
2022/07/28 02:19:16;;;;;;;9.80;5.80;;;;;;;15.15;77.85;98070.17;108504;1287;22611;-93
2022/07/28 02:21:46;;;;;;;11.60;6.20;;;;;;;15.16;78.33;98070.02;108526;1287;22448;-95
2022/07/28 02:24:18;;;;;;;10.80;6.40;;;;;;;15.18;78.36;98071.81;108330;1288;22509;-94
2022/07/28 02:26:52;;;;;;;10.00;5.80;;;;;;;15.18;78.12;98070.95;108559;1287;22478;-94
2022/07/28 02:29:23;;;;;;;11.60;6.00;;;;;;;15.17;78.25;98069.74;108541;1287;22309;-92
2022/07/28 02:33:00;;;;;;;9.10;6.00;;;;;;;15.17;78.51;98080.62;108446;1287;22336;-94
2022/07/28 02:35:49;;;;;;;10.30;5.50;;;;;;;15.14;78.69;98080.63;108466;1288;22488;-92
2022/07/28 02:38:24;;;;;;;11.90;5.90;;;;;;;15.09;78.84;98084.63;108635;1287;22412;-92
2022/07/28 02:40:56;;;;;;;14.10;5.10;;;;;;;15.17;79.03;98091.86;108381;1287;22373;-94
2022/07/28 02:43:27;;;;;;;9.40;5.10;;;;;;;15.22;79.17;98092.00;108283;1288;22428;-92
2022/07/28 02:46:19;;;;;;;8.70;6.00;;;;;;;15.29;78.89;98094.13;108393;1287;23112;-94
2022/07/28 02:48:51;;;;;;;13.80;7.30;;;;;;;15.27;78.76;98104.29;108370;1286;22264;-93
2022/07/28 02:51:23;;;;;;;11.00;5.50;;;;;;;15.25;78.81;98109.40;108413;1288;22435;-92
2022/07/28 02:53:52;;;;;;;12.60;5.20;;;;;;;15.21;79.18;98126.05;108641;1288;22331;-92
2022/07/28 02:56:21;;;;;;;9.50;5.10;;;;;;;15.23;79.12;98129.35;108328;1289;22581;-93
2022/07/28 02:58:50;;;;;;;8.90;5.30;;;;;;;15.25;79.19;98129.02;108329;1288;23151;-94
2022/07/28 03:01:19;;;;;;;9.90;5.50;;;;;;;15.29;79.23;98126.20;108466;1287;22230;-87
2022/07/28 03:03:48;;;;;;;10.10;5.80;;;;;;;15.28;79.71;98128.85;108421;1285;22404;-93
2022/07/28 03:06:18;;;;;;;9.40;6.40;;;;;;;15.26;79.80;98133.58;108411;1288;22327;-93
2022/07/28 03:08:56;;;;;;;12.30;6.10;;;;;;;15.29;80.14;98133.31;108552;1288;22547;-93
2022/07/28 03:11:24;;;;;;;13.50;6.00;;;;;;;15.30;79.89;98138.48;108580;1287;22384;-95
2022/07/28 03:13:52;;;;;;;12.00;6.00;;;;;;;15.30;80.16;98143.98;108599;1287;22393;-94
2022/07/28 03:16:20;;;;;;;11.40;6.90;;;;;;;15.31;79.98;98145.86;108540;1287;22634;-94
2022/07/28 03:18:50;;;;;;;11.40;7.20;;;;;;;15.30;80.17;98150.17;108300;1289;23138;-92
2022/07/28 03:21:18;;;;;;;11.50;6.30;;;;;;;15.25;80.69;98149.13;108395;1288;22454;-86
2022/07/28 03:23:48;;;;;;;11.30;5.90;;;;;;;15.13;81.43;98155.10;108721;1275;22490;-91
2022/07/28 03:26:24;;;;;;;11.60;6.10;;;;;;;15.09;80.96;98156.58;108538;1287;22350;-91
2022/07/28 03:28:55;;;;;;;10.00;5.90;;;;;;;15.13;81.10;98153.64;108460;1287;23281;-92
2022/07/28 03:31:26;;;;;;;12.30;6.00;;;;;;;15.22;81.22;98154.52;108552;1286;22456;-93
2022/07/28 03:33:54;;;;;;;14.90;7.40;;;;;;;15.33;81.10;98155.05;108627;1287;22543;-91
2022/07/28 03:36:30;;;;;;;12.60;7.00;;;;;;;15.37;80.98;98150.59;108622;1287;22365;-91
2022/07/28 03:39:02;;;;;;;14.20;7.20;;;;;;;15.37;80.91;98162.30;108365;1288;22430;-92
2022/07/28 03:41:32;;;;;;;10.80;6.60;;;;;;;15.33;80.91;98163.33;108454;1287;22385;-92
2022/07/28 03:44:01;;;;;;;11.20;7.20;;;;;;;15.30;81.09;98165.32;108444;1286;22401;-90
2022/07/28 03:46:30;;;;;;;36.90;33.40;;;;;;;15.30;81.37;98167.08;108605;1287;22425;-91
2022/07/28 03:48:58;;;;;;;11.10;7.20;;;;;;;15.29;81.74;98168.19;108598;1286;22394;-91
2022/07/28 03:51:28;;;;;;;9.90;6.80;;;;;;;15.31;81.71;98170.00;108471;1287;22502;-90
2022/07/28 03:53:56;;;;;;;13.00;6.80;;;;;;;15.32;81.45;98164.55;108591;1286;22265;-90
2022/07/28 03:56:24;;;;;;;10.70;6.70;;;;;;;15.35;81.91;98169.23;108644;1287;22693;-92
2022/07/28 03:58:52;;;;;;;10.40;6.50;;;;;;;15.32;81.68;98171.13;108659;1287;22958;-93
2022/07/28 04:01:20;;;;;;;9.60;5.50;;;;;;;15.27;81.91;98170.00;108721;1287;22215;-90
2022/07/28 04:03:48;;;;;;;8.20;5.20;;;;;;;15.30;82.20;98173.30;108665;1286;22441;-92
2022/07/28 04:06:16;;;;;;;9.50;5.00;;;;;;;15.35;81.93;98175.30;108670;1287;22363;-93
2022/07/28 04:08:44;;;;;;;10.40;5.80;;;;;;;15.36;82.10;98175.89;108702;1287;22616;-91
2022/07/28 04:11:12;;;;;;;9.50;5.00;;;;;;;15.38;82.18;98177.59;108663;1286;22543;-92
2022/07/28 04:13:40;;;;;;;9.30;5.30;;;;;;;15.43;82.43;98176.55;108649;1286;22370;-91
2022/07/28 04:16:08;;;;;;;7.70;5.10;;;;;;;15.47;82.30;98177.65;108539;1288;23137;-93
2022/07/28 04:18:36;;;;;;;9.00;4.90;;;;;;;15.45;82.34;98172.62;108487;1288;22424;-88
2022/07/28 04:21:06;;;;;;;8.50;5.10;;;;;;;15.44;83.19;98175.59;108411;1288;22412;-92
2022/07/28 04:23:34;;;;;;;8.40;4.90;;;;;;;15.44;82.76;98179.30;108488;1288;22502;-92
2022/07/28 04:26:02;;;;;;;12.30;5.90;;;;;;;15.45;82.94;98179.15;108520;1285;22428;-91
2022/07/28 04:28:30;;;;;;;9.60;6.80;;;;;;;15.37;84.31;98179.48;108533;1287;22450;-93
2022/07/28 04:30:58;;;;;;;13.90;7.40;;;;;;;15.24;84.89;98181.82;108500;1287;22291;-93
2022/07/28 04:33:26;;;;;;;12.80;8.80;;;;;;;15.18;84.44;98177.39;108555;1288;23157;-92
2022/07/28 04:35:54;;;;;;;18.00;10.20;;;;;;;15.26;84.31;98179.57;108569;1287;22370;-94
2022/07/28 04:38:21;;;;;;;13.10;9.00;;;;;;;15.34;83.95;98176.20;108640;1287;22379;-90
2022/07/28 04:40:49;;;;;;;12.50;7.80;;;;;;;15.42;83.96;98174.05;108593;1288;22372;-95
2022/07/28 04:43:17;;;;;;;12.00;7.50;;;;;;;15.50;84.21;98171.34;108664;1286;22520;-89
2022/07/28 04:45:50;;;;;;;9.90;5.80;;;;;;;15.59;84.12;98170.58;108578;1287;22303;-91
2022/07/28 04:48:22;;;;;;;9.40;5.80;;;;;;;15.63;83.71;98170.10;108591;1287;22396;-91
2022/07/28 04:50:51;;;;;;;13.10;5.10;;;;;;;15.65;83.40;98165.98;108618;1287;22306;-92
2022/07/28 04:53:21;;;;;;;11.20;4.80;;;;;;;15.70;83.49;98174.27;108489;1287;22390;-90
2022/07/28 04:55:50;;;;;;;9.00;5.30;;;;;;;15.78;83.74;98176.65;108681;1287;22413;-90
2022/07/28 04:58:20;;;;;;;7.40;4.90;;;;;;;15.75;83.96;98186.45;108699;1287;22410;-88
2022/07/28 05:00:50;;;;;;;10.00;5.00;;;;;;;15.63;83.74;98185.26;108624;1287;23136;-92
2022/07/28 05:03:19;;;;;;;10.60;4.60;;;;;;;15.60;83.37;98190.86;108601;1285;23148;-92
2022/07/28 05:05:47;;;;;;;8.90;4.20;;;;;;;15.69;83.55;98188.30;108611;1287;22331;-94
2022/07/28 05:08:22;;;;;;;8.40;4.10;;;;;;;15.75;83.47;98185.23;108377;1288;23193;-91
2022/07/28 05:10:55;;;;;;;5.90;4.10;;;;;;;15.81;83.14;98189.48;108270;1288;22294;-91
2022/07/28 05:13:24;;;;;;;7.70;4.00;;;;;;;15.83;82.89;98188.96;108127;1288;23116;-92
2022/07/28 05:15:58;;;;;;;9.80;4.60;;;;;;;15.87;82.57;98186.16;108469;1286;22362;-92
2022/07/28 05:18:26;;;;;;;8.60;4.40;;;;;;;15.99;82.75;98184.55;108663;1287;22300;-94
2022/07/28 05:21:02;;;;;;;8.30;5.30;;;;;;;16.16;82.35;98184.52;108537;1276;22568;-92
2022/07/28 05:23:30;;;;;;;8.20;4.10;;;;;;;16.20;81.73;98186.95;108510;1288;22432;-91
2022/07/28 05:25:58;;;;;;;11.50;3.70;;;;;;;16.23;81.67;98187.27;108506;1287;22311;-91
2022/07/28 05:28:26;;;;;;;10.80;5.10;;;;;;;16.29;80.91;98194.36;108437;1288;22303;-93
2022/07/28 05:30:54;;;;;;;11.60;6.50;;;;;;;16.28;80.55;98191.75;108324;1288;22466;-93
2022/07/28 05:33:23;;;;;;;10.80;4.70;;;;;;;16.29;79.53;98193.20;108404;1287;22357;-91
2022/07/28 05:35:57;;;;;;;8.40;6.10;;;;;;;16.27;79.67;98196.92;108320;1288;23101;-92
2022/07/28 05:38:26;;;;;;;9.00;4.70;;;;;;;16.27;79.29;98196.55;108258;1288;22319;-90
2022/07/28 05:40:54;;;;;;;6.60;4.10;;;;;;;16.28;78.25;98199.98;108351;1288;22382;-93
2022/07/28 05:43:22;;;;;;;9.60;4.00;;;;;;;16.11;77.52;98200.44;108361;1285;23063;-91
2022/07/28 05:45:50;;;;;;;8.80;3.80;;;;;;;16.06;78.27;98199.11;108159;1288;22334;-91
2022/07/28 05:48:19;;;;;;;8.90;4.30;;;;;;;16.11;78.55;98204.60;108212;1287;22333;-91
2022/07/28 05:50:49;;;;;;;8.40;3.80;;;;;;;16.17;78.12;98207.24;108317;1288;22337;-91
2022/07/28 05:53:18;;;;;;;9.20;4.90;;;;;;;16.20;77.90;98207.28;108311;1288;22352;-91
2022/07/28 05:55:46;;;;;;;7.00;5.10;;;;;;;16.22;77.98;98209.08;108268;1287;22263;-92
2022/07/28 05:58:29;;;;;;;8.30;4.10;;;;;;;16.22;77.38;98214.20;108264;1288;22464;-90
2022/07/28 06:01:01;;;;;;;7.90;3.60;;;;;;;16.17;77.33;98214.23;108325;1287;22362;-92
2022/07/28 06:03:31;;;;;;;9.60;3.50;;;;;;;16.22;77.86;98213.81;108417;1287;22247;-90
2022/07/28 06:06:00;;;;;;;9.00;3.80;;;;;;;16.34;78.23;98220.34;108266;1288;22234;-92
2022/07/28 06:08:45;;;;;;;6.50;3.60;;;;;;;16.52;78.15;98225.26;108312;1288;22390;-91
2022/07/28 06:11:15;;;;;;;7.90;3.60;;;;;;;16.75;78.04;98231.34;108284;1288;22335;-93
2022/07/28 06:13:51;;;;;;;7.70;3.80;;;;;;;16.92;77.87;98226.45;108136;1288;22664;-92
2022/07/28 06:16:21;;;;;;;6.60;3.60;;;;;;;17.05;77.84;98230.14;108095;1289;22363;-91
2022/07/28 06:18:50;;;;;;;6.20;3.40;;;;;;;17.17;77.44;98237.35;108077;1290;22249;-92
2022/07/28 06:21:21;;;;;;;9.00;3.40;;;;;;;17.20;76.63;98235.61;108121;1290;22516;-92
2022/07/28 06:23:49;;;;;;;6.00;3.10;;;;;;;17.24;76.57;98234.80;108282;1289;22352;-92
2022/07/28 06:26:17;;;;;;;7.80;3.80;;;;;;;17.31;76.37;98232.94;108261;1289;22206;-92
2022/07/28 06:28:44;;;;;;;5.30;3.10;;;;;;;17.39;76.25;98229.02;108292;1288;22534;-92
2022/07/28 06:31:13;;;;;;;9.40;3.30;;;;;;;17.47;75.69;98229.77;108307;1288;22254;-91
2022/07/28 06:33:41;;;;;;;7.60;3.90;;;;;;;17.55;75.69;98227.42;108221;1289;22343;-90
2022/07/28 06:36:09;;;;;;;8.10;3.40;;;;;;;17.70;75.59;98230.56;108211;1289;23184;-89
2022/07/28 06:38:37;;;;;;;8.00;3.50;;;;;;;17.87;75.73;98234.13;108197;1290;22398;-90
2022/07/28 06:41:05;;;;;;;8.60;3.40;;;;;;;18.00;74.28;98237.35;108253;1289;22539;-92
2022/07/28 06:43:33;;;;;;;9.60;3.30;;;;;;;18.03;73.80;98237.08;108222;1288;22452;-91
2022/07/28 06:46:06;;;;;;;6.80;3.50;;;;;;;18.00;73.73;98240.45;108052;1289;22403;-91
2022/07/28 06:48:38;;;;;;;6.20;3.60;;;;;;;18.00;73.70;98232.31;108222;1288;22382;-92
2022/07/28 06:51:06;;;;;;;7.20;3.30;;;;;;;18.07;73.82;98234.18;108196;1289;23234;-89
2022/07/28 06:53:34;;;;;;;7.50;3.30;;;;;;;18.18;73.74;98233.89;108190;1289;22375;-90
2022/07/28 06:56:05;;;;;;;7.80;3.70;;;;;;;18.32;73.86;98236.23;108191;1289;22407;-84
2022/07/28 06:58:34;;;;;;;7.40;3.00;;;;;;;18.45;72.96;98237.38;108176;1289;22277;-90
2022/07/28 07:01:06;;;;;;;5.80;2.90;;;;;;;18.51;72.86;98232.23;108209;1289;22286;-88
2022/07/28 07:03:34;;;;;;;7.40;2.90;;;;;;;18.61;72.40;98232.37;108020;1289;22433;-91
2022/07/28 07:06:03;;;;;;;9.80;3.20;;;;;;;18.69;71.28;98231.10;108188;1290;22316;-88
2022/07/28 07:08:31;;;;;;;5.80;2.60;;;;;;;18.74;70.95;98230.21;108198;1289;23073;-86
2022/07/28 07:10:59;;;;;;;6.60;2.80;;;;;;;18.81;70.43;98228.93;108251;1289;22372;-90
2022/07/28 07:13:28;;;;;;;6.40;2.90;;;;;;;18.94;70.47;98233.21;108367;1289;22374;-89
2022/07/28 07:15:56;;;;;;;7.30;2.60;;;;;;;19.05;69.34;98233.31;108313;1289;22425;-92
2022/07/28 07:18:24;;;;;;;8.10;2.80;;;;;;;19.13;68.86;98229.30;108214;1290;22355;-91
2022/07/28 07:20:53;;;;;;;4.20;2.40;;;;;;;19.24;68.02;98228.59;108200;1289;22273;-91
2022/07/28 07:23:21;;;;;;;6.60;2.50;;;;;;;19.29;67.32;98233.04;108203;1288;22783;-92
2022/07/28 07:25:49;;;;;;;5.30;2.30;;;;;;;19.30;65.01;98224.64;108237;1289;23117;-90
2022/07/28 07:28:17;;;;;;;6.60;2.50;;;;;;;19.35;65.48;98225.14;108236;1289;22949;-91
2022/07/28 07:30:45;;;;;;;8.30;2.70;;;;;;;19.45;65.82;98224.11;108036;1290;22378;-90
2022/07/28 07:33:13;;;;;;;7.20;2.70;;;;;;;19.55;66.16;98225.30;108215;1289;22956;-92
2022/07/28 07:35:41;;;;;;;4.60;2.30;;;;;;;19.63;64.60;98222.63;108248;1290;23048;-89
2022/07/28 07:38:09;;;;;;;6.50;2.30;;;;;;;19.74;65.08;98225.44;108210;1290;23120;-92
2022/07/28 07:40:37;;;;;;;4.60;2.50;;;;;;;19.85;62.92;98220.35;108056;1290;22283;-92
2022/07/28 07:43:05;;;;;;;10.70;2.30;;;;;;;19.93;62.46;98221.48;108219;1289;22277;-91
2022/07/28 07:45:33;;;;;;;9.10;2.50;;;;;;;19.94;61.53;98224.55;108062;1289;22390;-88
2022/07/28 07:48:02;;;;;;;7.50;2.20;;;;;;;20.04;62.35;98222.59;108186;1288;22350;-83
2022/07/28 07:50:30;;;;;;;10.50;2.60;;;;;;;20.22;62.62;98218.88;108183;1289;23118;-84
2022/07/28 07:52:59;;;;;;;4.10;2.40;;;;;;;20.44;60.57;98220.35;108208;1289;23016;-89
2022/07/28 07:55:27;;;;;;;5.80;2.50;;;;;;;20.53;59.78;98217.99;108196;1289;22449;-87
2022/07/28 07:58:05;;;;;;;6.30;2.10;;;;;;;20.57;59.39;98219.98;108234;1289;22357;-88
2022/07/28 08:00:33;;;;;;;7.80;2.50;;;;;;;20.71;60.41;98223.73;108201;1289;22281;-89
2022/07/28 08:03:01;;;;;;;8.70;2.40;;;;;;;20.83;59.38;98217.02;108218;1289;22366;-90
2022/07/28 08:05:29;;;;;;;7.90;2.40;;;;;;;20.88;56.71;98221.91;108218;1289;22291;-89
2022/07/28 08:08:03;;;;;;;3.90;1.80;;;;;;;20.94;57.10;98227.42;108271;1289;22474;-92
2022/07/28 08:10:34;;;;;;;5.20;2.10;;;;;;;21.18;58.12;98228.52;108075;1290;22363;-89
2022/07/28 08:13:05;;;;;;;7.10;2.00;;;;;;;21.44;57.42;98225.71;108024;1289;22417;-83
2022/07/28 08:15:34;;;;;;;7.90;2.00;;;;;;;21.62;56.05;98230.05;108162;1289;22318;-83
2022/07/28 08:18:02;;;;;;;5.90;1.70;;;;;;;21.67;55.43;98232.82;107965;1289;22529;-82
2022/07/28 08:20:31;;;;;;;4.30;2.20;;;;;;;21.78;56.56;98232.92;108008;1289;22512;-83
2022/07/28 08:22:59;;;;;;;4.10;1.80;;;;;;;21.87;54.81;98232.54;107619;1292;22653;-84
2022/07/28 08:25:27;;;;;;;5.60;2.10;;;;;;;21.92;54.41;98233.33;108024;1289;22253;-83
2022/07/28 08:27:55;;;;;;;4.80;2.30;;;;;;;21.96;53.75;98234.02;108081;1289;22386;-82
2022/07/28 08:30:23;;;;;;;9.20;2.10;;;;;;;22.05;52.65;98233.54;107877;1289;22334;-83
2022/07/28 08:32:59;;;;;;;5.40;2.00;;;;;;;22.08;52.27;98228.98;108040;1289;23603;-83
2022/07/28 08:35:27;;;;;;;9.60;2.90;;;;;;;22.13;51.93;98225.36;107837;1289;23104;-83
2022/07/28 08:38:03;;;;;;;8.20;2.40;;;;;;;22.18;52.53;98227.27;107860;1290;22867;-83
2022/07/28 08:40:33;;;;;;;4.00;1.90;;;;;;;22.25;51.46;98224.73;107936;1290;23164;-83
2022/07/28 08:43:07;;;;;;;5.10;2.00;;;;;;;22.32;51.48;98226.80;107848;1290;22424;-83
2022/07/28 08:45:36;;;;;;;;;;;;;;;22.53;51.57;98222.95;107956;1290;23113;-83
2022/07/28 08:48:06;;;;;;;8.00;2.00;;;;;;;22.69;51.88;98224.20;107979;1290;22478;-83
2022/07/28 08:50:38;;;;;;;5.50;2.00;;;;;;;22.75;50.58;98224.91;107870;1290;23186;-84
2022/07/28 08:53:07;;;;;;;5.80;2.00;;;;;;;22.81;50.83;98225.23;107875;1290;22425;-83
2022/07/28 08:55:36;;;;;;;8.30;2.30;;;;;;;23.03;50.46;98227.36;107958;1290;22298;-83
2022/07/28 08:58:05;;;;;;;6.70;3.00;;;;;;;22.91;46.98;98219.81;107981;1290;22331;-83
2022/07/28 09:00:33;;;;;;;6.40;3.00;;;;;;;22.81;48.44;98217.23;107970;1290;22459;-83
2022/07/28 09:03:02;;;;;;;8.20;2.30;;;;;;;22.83;48.77;98214.42;107571;1290;22410;-83
2022/07/28 09:05:31;;;;;;;5.50;2.10;;;;;;;22.95;48.50;98213.90;107960;1290;22390;-82
2022/07/28 09:07:59;;;;;;;10.50;2.30;;;;;;;23.06;48.05;98210.36;107985;1290;22528;-82
2022/07/28 09:10:28;;;;;;;6.00;2.30;;;;;;;23.15;48.47;98205.13;107967;1289;22980;-83
2022/07/28 09:12:56;;;;;;;6.30;2.50;;;;;;;23.33;48.46;98202.42;107835;1290;22638;-83
2022/07/28 09:15:24;;;;;;;4.90;2.30;;;;;;;23.48;47.96;98201.18;107958;1290;23082;-83
2022/07/28 09:17:52;;;;;;;6.10;2.00;;;;;;;23.54;47.66;98203.98;107970;1290;23182;-84
2022/07/28 09:20:20;;;;;;;4.50;2.00;;;;;;;23.62;47.78;98202.41;107963;1289;22330;-82
2022/07/28 09:23:00;;;;;;;6.50;2.10;;;;;;;23.68;47.64;98203.41;108033;1290;22443;-82
2022/07/28 09:25:29;;;;;;;3.20;2.00;;;;;;;23.69;44.85;98201.79;108066;1289;22319;-82
2022/07/28 09:28:12;;;;;;;5.30;2.20;;;;;;;23.34;44.58;98201.11;108031;1289;23412;-82
2022/07/28 09:30:45;;;;;;;4.70;1.80;;;;;;;23.35;46.03;98201.81;108053;1290;22303;-83
2022/07/28 09:33:23;;;;;;;6.30;2.10;;;;;;;23.50;45.83;98195.70;107906;1289;22990;-84
2022/07/28 09:36:14;;;;;;;9.40;2.10;;;;;;;23.63;45.64;98196.20;108054;1288;22458;-84
2022/07/28 09:38:45;;;;;;;5.60;2.10;;;;;;;23.69;44.71;98193.54;107902;1289;22373;-84
2022/07/28 09:41:17;;;;;;;6.10;2.30;;;;;;;23.70;45.86;98191.27;108077;1289;22422;-84
2022/07/28 09:43:45;;;;;;;4.60;2.20;;;;;;;23.71;43.38;98195.05;108050;1289;22509;-84
2022/07/28 09:46:23;;;;;;;5.30;2.10;;;;;;;23.49;42.88;98193.17;108050;1289;22476;-85
2022/07/28 09:48:56;;;;;;;4.90;2.40;;;;;;;23.46;42.75;98192.89;107602;1290;22365;-85
2022/07/28 09:51:27;;;;;;;5.40;2.50;;;;;;;23.52;43.57;98194.06;107853;1289;22427;-85
2022/07/28 09:54:16;;;;;;;10.20;2.60;;;;;;;23.71;44.25;98193.88;108053;1289;23154;-84
2022/07/28 09:56:45;;;;;;;5.20;2.00;;;;;;;23.80;42.28;98194.29;108078;1289;22570;-85
2022/07/28 09:59:13;;;;;;;2.70;1.90;;;;;;;23.80;42.59;98196.40;108036;1289;22442;-85
2022/07/28 10:01:59;;;;;;;3.80;2.10;;;;;;;23.80;40.26;98193.42;108049;1289;22376;-85
2022/07/28 10:04:32;;;;;;;6.20;2.20;;;;;;;23.67;41.69;98188.01;107835;1289;22539;-85
2022/07/28 10:07:16;;;;;;;4.90;2.50;;;;;;;23.66;40.30;98189.16;108087;1289;22387;-84
2022/07/28 10:09:59;;;;;;;6.70;3.60;;;;;;;23.76;40.33;98194.80;107789;1290;22510;-84
2022/07/28 10:12:30;;;;;;;7.60;4.70;;;;;;;23.64;40.50;98195.83;107829;1290;22433;-85
2022/07/28 10:17:59;;;;;;;5.80;2.40;;;;;;;23.69;41.51;98189.92;107587;1290;22445;-84
2022/07/28 10:20:28;;;;;;;4.50;2.40;;;;;;;23.94;41.35;98189.06;108031;1289;22326;-84
2022/07/28 10:23:02;;;;;;;7.40;2.60;;;;;;;24.17;41.68;98193.25;107612;1290;22424;-85
2022/07/28 10:25:32;;;;;;;5.70;2.10;;;;;;;24.43;41.72;98187.94;108046;1289;22385;-84
2022/07/28 10:28:02;;;;;;;8.50;2.60;;;;;;;24.61;41.87;98187.66;107647;1290;22432;-84
2022/07/28 10:30:36;;;;;;;4.30;2.00;;;;;;;24.71;41.57;98181.67;108027;1290;23160;-84
2022/07/28 10:33:09;;;;;;;5.30;2.30;;;;;;;24.95;42.06;98181.23;108045;1290;22402;-84
2022/07/28 10:35:37;;;;;;;6.10;2.40;;;;;;;25.22;41.75;98182.70;108072;1289;23095;-85
2022/07/28 10:38:24;;;;;;;;;;;;;;;25.49;41.80;98183.48;108074;1289;22422;-85
2022/07/28 10:40:55;;;;;;;4.80;2.30;;;;;;;25.59;41.67;98180.02;108039;1289;23188;-84
2022/07/28 10:43:26;;;;;;;6.40;2.40;;;;;;;25.70;41.77;98181.94;107864;1290;22923;-84
2022/07/28 10:45:54;;;;;;;6.50;2.10;;;;;;;25.84;41.41;98181.18;108026;1289;22459;-84
2022/07/28 10:48:36;;;;;;;7.50;2.20;;;;;;;25.99;40.29;98180.95;107878;1289;22339;-84
2022/07/28 10:51:04;;;;;;;3.00;1.90;;;;;;;26.07;40.13;98177.33;107961;1290;22553;-84
2022/07/28 10:53:44;;;;;;;6.70;2.20;;;;;;;26.17;39.97;98173.92;108036;1289;22296;-83
2022/07/28 10:56:18;;;;;;;3.20;2.10;;;;;;;26.24;38.38;98171.79;108052;1289;22527;-83
2022/07/28 10:59:01;;;;;;;6.40;2.30;;;;;;;26.02;38.38;98170.46;108057;1289;22409;-84
2022/07/28 11:01:37;;;;;;;7.80;2.20;;;;;;;25.94;38.79;98172.90;107819;1290;22313;-83
2022/07/28 11:04:44;;;;;;;4.10;2.10;;;;;;;25.69;39.90;98170.02;108016;1289;22458;-83
2022/07/28 11:07:15;;;;;;;5.50;2.30;;;;;;;25.70;38.39;98167.75;107696;1289;22515;-84
2022/07/28 11:09:46;;;;;;;5.00;2.40;;;;;;;25.75;39.13;98167.98;107842;1290;23341;-84
2022/07/28 11:12:15;;;;;;;4.50;2.00;;;;;;;26.04;39.43;98166.51;107865;1290;22296;-83
2022/07/28 11:14:43;;;;;;;4.70;2.00;;;;;;;26.24;39.21;98156.23;107894;1290;22298;-84
2022/07/28 11:17:13;;;;;;;3.50;2.00;;;;;;;26.51;39.48;98161.58;108003;1289;23007;-83
2022/07/28 11:19:45;;;;;;;4.90;2.20;;;;;;;26.69;38.17;98165.48;107600;1290;22371;-83
2022/07/28 11:22:33;;;;;;;4.60;2.00;;;;;;;26.88;39.17;98167.08;108020;1290;22453;-83
2022/07/28 11:25:04;;;;;;;5.30;2.20;;;;;;;26.98;38.50;98161.59;108022;1290;22655;-84
2022/07/28 11:27:49;;;;;;;6.90;2.00;;;;;;;27.08;37.93;98157.27;107967;1288;22332;-84
2022/07/28 11:30:27;;;;;;;9.00;2.00;;;;;;;27.11;38.01;98157.96;107901;1290;22305;-84
2022/07/28 11:32:57;;;;;;;6.10;2.10;;;;;;;27.16;38.53;98158.99;107963;1290;22451;-84
2022/07/28 11:35:26;;;;;;;4.20;2.00;;;;;;;27.15;38.25;98159.46;107797;1291;22397;-83
2022/07/28 11:38:00;;;;;;;4.40;2.10;;;;;;;27.22;37.92;98160.79;107598;1290;22620;-85
2022/07/28 11:40:29;;;;;;;5.00;2.20;;;;;;;27.33;38.17;98158.04;107949;1290;22393;-84
2022/07/28 11:43:19;;;;;;;7.10;2.20;;;;;;;27.43;37.42;98156.23;107987;1290;23117;-84
2022/07/28 11:46:13;;;;;;;5.40;2.10;;;;;;;27.60;38.26;98157.23;107974;1290;22420;-84
2022/07/28 11:48:43;;;;;;;5.30;2.40;;;;;;;27.85;38.37;98149.33;108058;1290;22402;-84